sensor_id;sensor_type;location;lat;lon;timestamp;temperature;humidity
43999;DHT22;51319;52.162;5.302;2023-12-29T00:01:30;9.80;99.90
43999;DHT22;51319;52.162;5.302;2023-12-29T00:03:58;9.80;99.90
43999;DHT22;51319;52.162;5.302;2023-12-29T00:06:25;9.80;99.90
43999;DHT22;51319;52.162;5.302;2023-12-29T00:08:52;9.80;99.90
43999;DHT22;51319;52.162;5.302;2023-12-29T00:11:20;9.90;99.90
43999;DHT22;51319;52.162;5.302;2023-12-29T00:13:48;9.90;99.90
43999;DHT22;51319;52.162;5.302;2023-12-29T00:16:15;9.90;99.90
43999;DHT22;51319;52.162;5.302;2023-12-29T00:18:42;10.00;99.90
43999;DHT22;51319;52.162;5.302;2023-12-29T00:21:10;10.00;99.90
43999;DHT22;51319;52.162;5.302;2023-12-29T00:23:37;9.90;99.90
43999;DHT22;51319;52.162;5.302;2023-12-29T00:26:04;9.80;99.90
43999;DHT22;51319;52.162;5.302;2023-12-29T00:28:31;9.80;99.90
43999;DHT22;51319;52.162;5.302;2023-12-29T00:30:58;9.70;99.90
43999;DHT22;51319;52.162;5.302;2023-12-29T00:33:29;9.70;99.90
43999;DHT22;51319;52.162;5.302;2023-12-29T00:35:57;9.70;99.90
43999;DHT22;51319;52.162;5.302;2023-12-29T00:38:27;9.70;99.90
43999;DHT22;51319;52.162;5.302;2023-12-29T00:40:57;9.70;99.90
43999;DHT22;51319;52.162;5.302;2023-12-29T00:43:24;9.70;99.90
43999;DHT22;51319;52.162;5.302;2023-12-29T00:45:51;9.70;99.90
43999;DHT22;51319;52.162;5.302;2023-12-29T00:48:18;9.70;99.90
43999;DHT22;51319;52.162;5.302;2023-12-29T00:50:45;9.80;99.90
43999;DHT22;51319;52.162;5.302;2023-12-29T00:53:12;9.80;99.90
43999;DHT22;51319;52.162;5.302;2023-12-29T00:55:40;9.90;99.90
43999;DHT22;51319;52.162;5.302;2023-12-29T00:58:07;9.90;99.90
43999;DHT22;51319;52.162;5.302;2023-12-29T01:00:34;9.90;99.90
43999;DHT22;51319;52.162;5.302;2023-12-29T01:03:01;10.00;99.90
43999;DHT22;51319;52.162;5.302;2023-12-29T01:05:29;10.00;99.90
43999;DHT22;51319;52.162;5.302;2023-12-29T01:07:56;10.10;99.90
43999;DHT22;51319;52.162;5.302;2023-12-29T01:10:23;10.10;99.90
43999;DHT22;51319;52.162;5.302;2023-12-29T01:12:50;10.10;99.90
43999;DHT22;51319;52.162;5.302;2023-12-29T01:15:17;10.20;99.90
43999;DHT22;51319;52.162;5.302;2023-12-29T01:17:44;10.20;99.90
43999;DHT22;51319;52.162;5.302;2023-12-29T01:20:12;10.20;99.90
43999;DHT22;51319;52.162;5.302;2023-12-29T01:22:39;10.20;99.90
43999;DHT22;51319;52.162;5.302;2023-12-29T01:25:06;10.30;99.90
43999;DHT22;51319;52.162;5.302;2023-12-29T01:27:33;10.30;99.90
43999;DHT22;51319;52.162;5.302;2023-12-29T01:30:00;10.30;99.90
43999;DHT22;51319;52.162;5.302;2023-12-29T01:32:27;10.30;99.90
43999;DHT22;51319;52.162;5.302;2023-12-29T01:34:54;10.30;99.90
43999;DHT22;51319;52.162;5.302;2023-12-29T01:37:22;10.30;99.90
43999;DHT22;51319;52.162;5.302;2023-12-29T01:39:49;10.30;99.90
43999;DHT22;51319;52.162;5.302;2023-12-29T01:42:16;10.30;99.90
43999;DHT22;51319;52.162;5.302;2023-12-29T01:44:44;10.30;99.90
43999;DHT22;51319;52.162;5.302;2023-12-29T01:47:15;10.30;99.90
43999;DHT22;51319;52.162;5.302;2023-12-29T01:49:46;10.30;99.90
43999;DHT22;51319;52.162;5.302;2023-12-29T01:52:16;10.30;99.90
43999;DHT22;51319;52.162;5.302;2023-12-29T01:54:44;10.30;99.90
43999;DHT22;51319;52.162;5.302;2023-12-29T01:57:12;10.30;99.90
43999;DHT22;51319;52.162;5.302;2023-12-29T01:59:39;10.30;99.90
43999;DHT22;51319;52.162;5.302;2023-12-29T02:02:07;10.30;99.90
43999;DHT22;51319;52.162;5.302;2023-12-29T02:04:35;10.30;99.90
43999;DHT22;51319;52.162;5.302;2023-12-29T02:07:04;10.30;99.90
43999;DHT22;51319;52.162;5.302;2023-12-29T02:09:31;10.30;99.90
43999;DHT22;51319;52.162;5.302;2023-12-29T02:12:00;10.30;99.90
43999;DHT22;51319;52.162;5.302;2023-12-29T02:14:28;10.40;99.90
43999;DHT22;51319;52.162;5.302;2023-12-29T02:17:10;10.40;99.90
43999;DHT22;51319;52.162;5.302;2023-12-29T02:19:46;10.40;99.90
43999;DHT22;51319;52.162;5.302;2023-12-29T02:22:14;10.40;99.90
43999;DHT22;51319;52.162;5.302;2023-12-29T02:24:49;10.40;99.90
43999;DHT22;51319;52.162;5.302;2023-12-29T02:32:30;10.40;99.90
43999;DHT22;51319;52.162;5.302;2023-12-29T02:35:00;10.30;99.90
43999;DHT22;51319;52.162;5.302;2023-12-29T02:37:29;10.30;99.90
43999;DHT22;51319;52.162;5.302;2023-12-29T02:39:59;10.30;99.90
43999;DHT22;51319;52.162;5.302;2023-12-29T02:42:26;10.30;99.90
43999;DHT22;51319;52.162;5.302;2023-12-29T02:44:53;10.30;99.90
43999;DHT22;51319;52.162;5.302;2023-12-29T02:47:20;10.30;99.90
43999;DHT22;51319;52.162;5.302;2023-12-29T02:49:48;10.30;99.90
43999;DHT22;51319;52.162;5.302;2023-12-29T02:52:17;10.20;99.90
43999;DHT22;51319;52.162;5.302;2023-12-29T02:54:44;10.20;99.90
43999;DHT22;51319;52.162;5.302;2023-12-29T02:57:11;10.20;99.90
43999;DHT22;51319;52.162;5.302;2023-12-29T02:59:38;10.10;99.90
43999;DHT22;51319;52.162;5.302;2023-12-29T03:02:07;10.10;99.90
43999;DHT22;51319;52.162;5.302;2023-12-29T03:04:34;10.10;99.90
43999;DHT22;51319;52.162;5.302;2023-12-29T03:07:01;10.10;99.90
43999;DHT22;51319;52.162;5.302;2023-12-29T03:09:28;10.10;99.90
43999;DHT22;51319;52.162;5.302;2023-12-29T03:11:55;10.10;99.90
43999;DHT22;51319;52.162;5.302;2023-12-29T03:14:22;10.10;99.90
43999;DHT22;51319;52.162;5.302;2023-12-29T03:16:49;10.10;99.90
43999;DHT22;51319;52.162;5.302;2023-12-29T03:19:19;10.10;99.90
43999;DHT22;51319;52.162;5.302;2023-12-29T03:21:46;10.10;99.90
43999;DHT22;51319;52.162;5.302;2023-12-29T03:24:14;10.00;99.90
43999;DHT22;51319;52.162;5.302;2023-12-29T03:26:41;10.00;99.90
43999;DHT22;51319;52.162;5.302;2023-12-29T03:29:08;9.90;99.90
43999;DHT22;51319;52.162;5.302;2023-12-29T03:31:35;9.90;99.90
43999;DHT22;51319;52.162;5.302;2023-12-29T03:34:02;9.80;99.90
43999;DHT22;51319;52.162;5.302;2023-12-29T03:36:30;9.70;99.90
43999;DHT22;51319;52.162;5.302;2023-12-29T03:38:57;9.60;99.90
43999;DHT22;51319;52.162;5.302;2023-12-29T03:41:24;9.60;99.90
43999;DHT22;51319;52.162;5.302;2023-12-29T03:43:51;9.50;99.90
43999;DHT22;51319;52.162;5.302;2023-12-29T03:46:19;9.50;99.90
43999;DHT22;51319;52.162;5.302;2023-12-29T03:48:47;9.40;99.90
43999;DHT22;51319;52.162;5.302;2023-12-29T03:51:15;9.40;99.90
43999;DHT22;51319;52.162;5.302;2023-12-29T03:53:43;9.40;99.90
43999;DHT22;51319;52.162;5.302;2023-12-29T03:56:15;9.40;99.90
43999;DHT22;51319;52.162;5.302;2023-12-29T03:58:46;9.40;99.90
43999;DHT22;51319;52.162;5.302;2023-12-29T04:01:15;9.40;99.90
43999;DHT22;51319;52.162;5.302;2023-12-29T04:03:43;9.40;99.90
43999;DHT22;51319;52.162;5.302;2023-12-29T04:06:10;9.50;99.90
43999;DHT22;51319;52.162;5.302;2023-12-29T04:08:38;9.60;99.90
43999;DHT22;51319;52.162;5.302;2023-12-29T04:11:05;9.70;99.90
43999;DHT22;51319;52.162;5.302;2023-12-29T04:13:34;9.70;99.90
43999;DHT22;51319;52.162;5.302;2023-12-29T04:16:01;9.60;99.90
43999;DHT22;51319;52.162;5.302;2023-12-29T04:18:29;9.60;99.90
43999;DHT22;51319;52.162;5.302;2023-12-29T04:20:56;9.60;99.90
43999;DHT22;51319;52.162;5.302;2023-12-29T04:23:23;9.60;99.90
43999;DHT22;51319;52.162;5.302;2023-12-29T04:25:50;9.60;99.90
43999;DHT22;51319;52.162;5.302;2023-12-29T04:28:17;9.60;99.90
43999;DHT22;51319;52.162;5.302;2023-12-29T04:30:44;9.60;99.90
43999;DHT22;51319;52.162;5.302;2023-12-29T04:33:12;9.60;99.90
43999;DHT22;51319;52.162;5.302;2023-12-29T04:35:39;9.60;99.90
43999;DHT22;51319;52.162;5.302;2023-12-29T04:38:06;9.60;99.90
43999;DHT22;51319;52.162;5.302;2023-12-29T04:40:33;9.60;99.90
43999;DHT22;51319;52.162;5.302;2023-12-29T04:43:00;9.60;99.90
43999;DHT22;51319;52.162;5.302;2023-12-29T04:45:27;9.60;99.90
43999;DHT22;51319;52.162;5.302;2023-12-29T04:47:56;9.60;99.90
43999;DHT22;51319;52.162;5.302;2023-12-29T04:50:23;9.60;99.90
43999;DHT22;51319;52.162;5.302;2023-12-29T04:52:50;9.70;99.90
43999;DHT22;51319;52.162;5.302;2023-12-29T04:55:18;9.70;99.90
43999;DHT22;51319;52.162;5.302;2023-12-29T04:57:45;9.80;99.90
43999;DHT22;51319;52.162;5.302;2023-12-29T05:00:12;9.80;99.90
43999;DHT22;51319;52.162;5.302;2023-12-29T05:02:40;9.80;99.90
43999;DHT22;51319;52.162;5.302;2023-12-29T05:05:08;9.80;99.90
43999;DHT22;51319;52.162;5.302;2023-12-29T05:07:35;9.90;99.90
43999;DHT22;51319;52.162;5.302;2023-12-29T05:10:02;9.90;99.90
43999;DHT22;51319;52.162;5.302;2023-12-29T05:12:29;9.90;99.90
43999;DHT22;51319;52.162;5.302;2023-12-29T05:14:57;9.90;99.90
43999;DHT22;51319;52.162;5.302;2023-12-29T05:17:24;9.90;99.90
43999;DHT22;51319;52.162;5.302;2023-12-29T05:19:51;9.80;99.90
43999;DHT22;51319;52.162;5.302;2023-12-29T05:22:18;9.90;99.90
43999;DHT22;51319;52.162;5.302;2023-12-29T05:24:45;9.90;99.90
43999;DHT22;51319;52.162;5.302;2023-12-29T05:27:12;9.90;99.90
43999;DHT22;51319;52.162;5.302;2023-12-29T05:29:41;9.90;99.90
43999;DHT22;51319;52.162;5.302;2023-12-29T05:32:08;9.90;99.90
43999;DHT22;51319;52.162;5.302;2023-12-29T05:34:35;9.90;99.90
43999;DHT22;51319;52.162;5.302;2023-12-29T05:37:02;9.90;99.90
43999;DHT22;51319;52.162;5.302;2023-12-29T05:39:29;9.90;99.90
43999;DHT22;51319;52.162;5.302;2023-12-29T05:41:56;9.90;99.90
43999;DHT22;51319;52.162;5.302;2023-12-29T05:44:23;9.90;99.90
43999;DHT22;51319;52.162;5.302;2023-12-29T05:46:50;9.90;99.90
43999;DHT22;51319;52.162;5.302;2023-12-29T05:49:18;9.90;99.90
43999;DHT22;51319;52.162;5.302;2023-12-29T05:51:45;9.90;99.90
43999;DHT22;51319;52.162;5.302;2023-12-29T05:54:12;9.90;99.90
43999;DHT22;51319;52.162;5.302;2023-12-29T05:56:39;9.90;99.90
43999;DHT22;51319;52.162;5.302;2023-12-29T05:59:06;9.90;99.90
43999;DHT22;51319;52.162;5.302;2023-12-29T06:01:33;9.90;99.90
43999;DHT22;51319;52.162;5.302;2023-12-29T06:04:00;9.90;99.90
43999;DHT22;51319;52.162;5.302;2023-12-29T06:06:27;9.90;99.90
43999;DHT22;51319;52.162;5.302;2023-12-29T06:08:54;10.00;99.90
43999;DHT22;51319;52.162;5.302;2023-12-29T06:11:21;10.00;99.90
43999;DHT22;51319;52.162;5.302;2023-12-29T06:13:48;10.00;99.90
43999;DHT22;51319;52.162;5.302;2023-12-29T06:16:20;10.00;99.90
43999;DHT22;51319;52.162;5.302;2023-12-29T06:18:47;10.00;99.90
43999;DHT22;51319;52.162;5.302;2023-12-29T06:21:15;10.10;99.90
43999;DHT22;51319;52.162;5.302;2023-12-29T06:23:42;10.10;99.90
43999;DHT22;51319;52.162;5.302;2023-12-29T06:26:19;10.10;99.90
43999;DHT22;51319;52.162;5.302;2023-12-29T06:28:47;10.10;99.90
43999;DHT22;51319;52.162;5.302;2023-12-29T06:31:14;10.10;99.90
43999;DHT22;51319;52.162;5.302;2023-12-29T06:33:42;10.10;99.90
43999;DHT22;51319;52.162;5.302;2023-12-29T06:36:10;10.10;99.90
43999;DHT22;51319;52.162;5.302;2023-12-29T06:38:37;10.10;99.90
43999;DHT22;51319;52.162;5.302;2023-12-29T06:41:04;10.10;99.90
43999;DHT22;51319;52.162;5.302;2023-12-29T06:43:32;10.10;99.90
43999;DHT22;51319;52.162;5.302;2023-12-29T06:45:59;10.10;99.90
43999;DHT22;51319;52.162;5.302;2023-12-29T06:48:26;10.10;99.90
43999;DHT22;51319;52.162;5.302;2023-12-29T06:50:53;10.10;99.90
43999;DHT22;51319;52.162;5.302;2023-12-29T06:53:20;10.10;99.90
43999;DHT22;51319;52.162;5.302;2023-12-29T06:55:47;10.20;99.90
43999;DHT22;51319;52.162;5.302;2023-12-29T06:58:16;10.10;99.90
43999;DHT22;51319;52.162;5.302;2023-12-29T07:00:43;10.10;99.90
43999;DHT22;51319;52.162;5.302;2023-12-29T07:03:14;10.10;99.90
43999;DHT22;51319;52.162;5.302;2023-12-29T07:05:43;10.10;99.90
43999;DHT22;51319;52.162;5.302;2023-12-29T07:08:13;10.10;99.90
43999;DHT22;51319;52.162;5.302;2023-12-29T07:10:41;10.10;99.90
43999;DHT22;51319;52.162;5.302;2023-12-29T07:13:08;10.10;99.90
43999;DHT22;51319;52.162;5.302;2023-12-29T07:15:36;10.10;99.90
43999;DHT22;51319;52.162;5.302;2023-12-29T07:18:04;10.10;99.90
43999;DHT22;51319;52.162;5.302;2023-12-29T07:20:32;10.10;99.90
43999;DHT22;51319;52.162;5.302;2023-12-29T07:23:00;10.10;99.90
43999;DHT22;51319;52.162;5.302;2023-12-29T07:25:27;10.10;99.90
43999;DHT22;51319;52.162;5.302;2023-12-29T07:27:54;10.10;99.90
43999;DHT22;51319;52.162;5.302;2023-12-29T07:30:21;10.10;99.90
43999;DHT22;51319;52.162;5.302;2023-12-29T07:32:49;10.00;99.90
43999;DHT22;51319;52.162;5.302;2023-12-29T07:35:16;10.10;99.90
43999;DHT22;51319;52.162;5.302;2023-12-29T07:37:44;10.10;99.90
43999;DHT22;51319;52.162;5.302;2023-12-29T07:40:14;10.10;99.90
43999;DHT22;51319;52.162;5.302;2023-12-29T07:42:41;10.10;99.90
43999;DHT22;51319;52.162;5.302;2023-12-29T07:45:11;10.10;99.90
43999;DHT22;51319;52.162;5.302;2023-12-29T07:47:38;10.10;99.90
43999;DHT22;51319;52.162;5.302;2023-12-29T07:50:06;10.10;99.90
43999;DHT22;51319;52.162;5.302;2023-12-29T07:52:33;10.10;99.90
43999;DHT22;51319;52.162;5.302;2023-12-29T07:55:00;10.10;99.90
43999;DHT22;51319;52.162;5.302;2023-12-29T07:57:27;10.10;99.90
43999;DHT22;51319;52.162;5.302;2023-12-29T07:59:54;10.10;99.90
43999;DHT22;51319;52.162;5.302;2023-12-29T08:02:22;10.10;99.90
43999;DHT22;51319;52.162;5.302;2023-12-29T08:04:50;10.10;99.90
43999;DHT22;51319;52.162;5.302;2023-12-29T08:07:17;10.00;99.90
43999;DHT22;51319;52.162;5.302;2023-12-29T08:09:44;10.00;99.90
43999;DHT22;51319;52.162;5.302;2023-12-29T08:12:11;10.00;99.90
43999;DHT22;51319;52.162;5.302;2023-12-29T08:14:38;10.00;99.90
43999;DHT22;51319;52.162;5.302;2023-12-29T08:17:05;10.00;99.90
43999;DHT22;51319;52.162;5.302;2023-12-29T08:19:33;10.10;99.90
43999;DHT22;51319;52.162;5.302;2023-12-29T08:22:00;10.10;99.90
43999;DHT22;51319;52.162;5.302;2023-12-29T08:24:28;10.20;99.90
43999;DHT22;51319;52.162;5.302;2023-12-29T08:26:55;10.20;99.90
43999;DHT22;51319;52.162;5.302;2023-12-29T08:29:21;10.20;99.90
43999;DHT22;51319;52.162;5.302;2023-12-29T08:31:48;10.20;99.90
43999;DHT22;51319;52.162;5.302;2023-12-29T08:34:15;10.30;99.90
43999;DHT22;51319;52.162;5.302;2023-12-29T08:36:45;10.30;99.90
43999;DHT22;51319;52.162;5.302;2023-12-29T08:39:12;10.20;99.90
43999;DHT22;51319;52.162;5.302;2023-12-29T08:41:39;10.20;99.90
43999;DHT22;51319;52.162;5.302;2023-12-29T08:44:06;10.20;99.90
43999;DHT22;51319;52.162;5.302;2023-12-29T08:46:33;10.20;99.90
43999;DHT22;51319;52.162;5.302;2023-12-29T08:49:00;10.20;99.90
43999;DHT22;51319;52.162;5.302;2023-12-29T08:51:28;10.20;99.90
43999;DHT22;51319;52.162;5.302;2023-12-29T08:53:55;10.30;99.90
43999;DHT22;51319;52.162;5.302;2023-12-29T08:56:22;10.30;99.90
43999;DHT22;51319;52.162;5.302;2023-12-29T08:58:53;10.30;99.90
43999;DHT22;51319;52.162;5.302;2023-12-29T09:01:20;10.30;99.90
43999;DHT22;51319;52.162;5.302;2023-12-29T09:03:47;10.40;99.90
43999;DHT22;51319;52.162;5.302;2023-12-29T09:06:14;10.40;99.90
43999;DHT22;51319;52.162;5.302;2023-12-29T09:08:42;10.40;99.90
43999;DHT22;51319;52.162;5.302;2023-12-29T09:11:09;10.40;99.90
43999;DHT22;51319;52.162;5.302;2023-12-29T09:13:37;10.30;99.90
43999;DHT22;51319;52.162;5.302;2023-12-29T09:16:04;10.30;99.90
43999;DHT22;51319;52.162;5.302;2023-12-29T09:18:31;10.20;99.90
43999;DHT22;51319;52.162;5.302;2023-12-29T09:21:00;10.20;99.90
43999;DHT22;51319;52.162;5.302;2023-12-29T09:23:27;10.20;99.90
43999;DHT22;51319;52.162;5.302;2023-12-29T09:25:55;10.30;99.90
43999;DHT22;51319;52.162;5.302;2023-12-29T09:28:22;10.30;99.90
43999;DHT22;51319;52.162;5.302;2023-12-29T09:30:49;10.30;99.90
43999;DHT22;51319;52.162;5.302;2023-12-29T09:33:16;10.30;99.90
43999;DHT22;51319;52.162;5.302;2023-12-29T09:35:43;10.50;99.90
43999;DHT22;51319;52.162;5.302;2023-12-29T09:38:11;10.40;99.90
43999;DHT22;51319;52.162;5.302;2023-12-29T09:40:38;10.50;99.90
43999;DHT22;51319;52.162;5.302;2023-12-29T09:43:05;10.50;99.90
43999;DHT22;51319;52.162;5.302;2023-12-29T09:45:33;10.60;99.90
43999;DHT22;51319;52.162;5.302;2023-12-29T09:48:03;10.60;99.90
43999;DHT22;51319;52.162;5.302;2023-12-29T09:50:34;10.60;99.90
43999;DHT22;51319;52.162;5.302;2023-12-29T09:53:02;10.70;99.90
43999;DHT22;51319;52.162;5.302;2023-12-29T09:55:30;10.70;99.90
43999;DHT22;51319;52.162;5.302;2023-12-29T09:57:59;10.70;99.90
43999;DHT22;51319;52.162;5.302;2023-12-29T10:00:27;10.70;99.90
43999;DHT22;51319;52.162;5.302;2023-12-29T10:02:55;10.70;99.90
43999;DHT22;51319;52.162;5.302;2023-12-29T10:05:23;10.80;99.90
43999;DHT22;51319;52.162;5.302;2023-12-29T10:07:52;10.80;99.90
43999;DHT22;51319;52.162;5.302;2023-12-29T10:10:20;10.90;99.90
43999;DHT22;51319;52.162;5.302;2023-12-29T10:12:51;10.90;99.90
43999;DHT22;51319;52.162;5.302;2023-12-29T10:18:10;10.80;99.90
43999;DHT22;51319;52.162;5.302;2023-12-29T10:20:56;10.80;99.90
43999;DHT22;51319;52.162;5.302;2023-12-29T10:26:05;11.00;99.90
43999;DHT22;51319;52.162;5.302;2023-12-29T10:28:32;11.10;99.90
43999;DHT22;51319;52.162;5.302;2023-12-29T10:30:59;11.20;99.90
43999;DHT22;51319;52.162;5.302;2023-12-29T10:33:27;11.30;99.90
43999;DHT22;51319;52.162;5.302;2023-12-29T10:36:00;11.40;99.90
43999;DHT22;51319;52.162;5.302;2023-12-29T10:38:31;11.60;99.90
43999;DHT22;51319;52.162;5.302;2023-12-29T10:41:13;11.70;99.90
43999;DHT22;51319;52.162;5.302;2023-12-29T10:43:42;11.70;99.90
43999;DHT22;51319;52.162;5.302;2023-12-29T10:46:10;11.60;99.90
43999;DHT22;51319;52.162;5.302;2023-12-29T10:48:38;11.70;99.90
43999;DHT22;51319;52.162;5.302;2023-12-29T10:51:06;11.70;99.90
43999;DHT22;51319;52.162;5.302;2023-12-29T10:53:35;11.80;99.90
43999;DHT22;51319;52.162;5.302;2023-12-29T10:56:17;11.70;99.60
43999;DHT22;51319;52.162;5.302;2023-12-29T10:58:56;11.60;99.20
43999;DHT22;51319;52.162;5.302;2023-12-29T11:01:26;11.50;99.30
43999;DHT22;51319;52.162;5.302;2023-12-29T11:04:04;11.30;99.60
43999;DHT22;51319;52.162;5.302;2023-12-29T11:06:40;11.20;99.90
43999;DHT22;51319;52.162;5.302;2023-12-29T11:09:08;11.20;99.90
43999;DHT22;51319;52.162;5.302;2023-12-29T11:11:40;11.30;99.90
43999;DHT22;51319;52.162;5.302;2023-12-29T11:14:10;11.40;99.90
43999;DHT22;51319;52.162;5.302;2023-12-29T11:16:52;11.50;99.90
43999;DHT22;51319;52.162;5.302;2023-12-29T11:19:22;11.50;99.90
43999;DHT22;51319;52.162;5.302;2023-12-29T11:21:53;11.60;99.90
43999;DHT22;51319;52.162;5.302;2023-12-29T11:24:22;11.70;99.90
43999;DHT22;51319;52.162;5.302;2023-12-29T11:27:01;11.80;99.70
43999;DHT22;51319;52.162;5.302;2023-12-29T11:29:30;11.90;99.50
43999;DHT22;51319;52.162;5.302;2023-12-29T11:31:58;12.00;99.10
43999;DHT22;51319;52.162;5.302;2023-12-29T11:34:43;12.00;98.60
43999;DHT22;51319;52.162;5.302;2023-12-29T11:37:29;12.10;98.00
43999;DHT22;51319;52.162;5.302;2023-12-29T11:40:26;12.20;97.50
43999;DHT22;51319;52.162;5.302;2023-12-29T11:43:01;12.30;96.80
43999;DHT22;51319;52.162;5.302;2023-12-29T11:45:31;12.30;96.30
43999;DHT22;51319;52.162;5.302;2023-12-29T11:48:03;12.30;95.90
43999;DHT22;51319;52.162;5.302;2023-12-29T11:50:38;12.30;95.60
43999;DHT22;51319;52.162;5.302;2023-12-29T11:53:09;12.30;95.40
43999;DHT22;51319;52.162;5.302;2023-12-29T11:55:56;12.20;95.40
43999;DHT22;51319;52.162;5.302;2023-12-29T11:58:27;12.20;95.50
43999;DHT22;51319;52.162;5.302;2023-12-29T12:00:57;12.20;95.30
43999;DHT22;51319;52.162;5.302;2023-12-29T12:03:26;12.20;95.10
43999;DHT22;51319;52.162;5.302;2023-12-29T12:05:55;12.20;95.00
43999;DHT22;51319;52.162;5.302;2023-12-29T12:08:37;12.20;94.90
43999;DHT22;51319;52.162;5.302;2023-12-29T12:14:03;12.20;94.70
43999;DHT22;51319;52.162;5.302;2023-12-29T12:19:13;12.10;94.50
43999;DHT22;51319;52.162;5.302;2023-12-29T12:21:40;12.00;94.50
43999;DHT22;51319;52.162;5.302;2023-12-29T12:24:08;12.00;94.60
43999;DHT22;51319;52.162;5.302;2023-12-29T12:26:35;12.00;94.60
43999;DHT22;51319;52.162;5.302;2023-12-29T12:29:03;12.00;94.60
43999;DHT22;51319;52.162;5.302;2023-12-29T12:31:31;12.10;94.60
43999;DHT22;51319;52.162;5.302;2023-12-29T12:33:59;12.10;94.50
43999;DHT22;51319;52.162;5.302;2023-12-29T12:36:50;12.10;94.50
43999;DHT22;51319;52.162;5.302;2023-12-29T12:39:18;12.10;94.30
43999;DHT22;51319;52.162;5.302;2023-12-29T12:41:46;12.10;94.10
43999;DHT22;51319;52.162;5.302;2023-12-29T12:44:15;12.10;94.00
43999;DHT22;51319;52.162;5.302;2023-12-29T12:49:14;12.10;93.60
43999;DHT22;51319;52.162;5.302;2023-12-29T12:51:44;12.10;93.60
43999;DHT22;51319;52.162;5.302;2023-12-29T12:54:12;12.00;93.60
43999;DHT22;51319;52.162;5.302;2023-12-29T12:56:42;12.10;93.80
43999;DHT22;51319;52.162;5.302;2023-12-29T12:59:10;12.10;93.60
43999;DHT22;51319;52.162;5.302;2023-12-29T13:01:38;12.10;93.50
43999;DHT22;51319;52.162;5.302;2023-12-29T13:04:07;12.10;93.30
43999;DHT22;51319;52.162;5.302;2023-12-29T13:06:40;12.20;93.20
43999;DHT22;51319;52.162;5.302;2023-12-29T13:09:09;12.20;93.00
43999;DHT22;51319;52.162;5.302;2023-12-29T13:11:39;12.20;93.00
43999;DHT22;51319;52.162;5.302;2023-12-29T13:14:21;12.10;92.90
43999;DHT22;51319;52.162;5.302;2023-12-29T13:16:49;12.20;93.10
43999;DHT22;51319;52.162;5.302;2023-12-29T13:19:18;12.10;93.00
43999;DHT22;51319;52.162;5.302;2023-12-29T13:21:47;12.10;93.00
43999;DHT22;51319;52.162;5.302;2023-12-29T13:24:14;12.00;92.60
43999;DHT22;51319;52.162;5.302;2023-12-29T13:26:45;12.00;92.50
43999;DHT22;51319;52.162;5.302;2023-12-29T13:29:14;12.00;92.50
43999;DHT22;51319;52.162;5.302;2023-12-29T13:31:42;12.00;92.50
43999;DHT22;51319;52.162;5.302;2023-12-29T13:34:17;12.00;92.40
43999;DHT22;51319;52.162;5.302;2023-12-29T13:37:16;11.90;92.30
43999;DHT22;51319;52.162;5.302;2023-12-29T13:39:56;11.90;92.40
43999;DHT22;51319;52.162;5.302;2023-12-29T13:42:28;11.90;92.60
43999;DHT22;51319;52.162;5.302;2023-12-29T13:44:56;11.90;92.70
43999;DHT22;51319;52.162;5.302;2023-12-29T13:47:23;11.90;92.80
43999;DHT22;51319;52.162;5.302;2023-12-29T13:49:51;11.90;92.70
43999;DHT22;51319;52.162;5.302;2023-12-29T13:52:18;11.90;92.70
43999;DHT22;51319;52.162;5.302;2023-12-29T13:54:48;11.90;92.80
43999;DHT22;51319;52.162;5.302;2023-12-29T13:57:16;11.90;92.90
43999;DHT22;51319;52.162;5.302;2023-12-29T13:59:47;11.80;93.00
43999;DHT22;51319;52.162;5.302;2023-12-29T14:02:31;11.80;93.10
43999;DHT22;51319;52.162;5.302;2023-12-29T14:10:22;11.80;93.50
43999;DHT22;51319;52.162;5.302;2023-12-29T14:12:49;11.80;93.60
43999;DHT22;51319;52.162;5.302;2023-12-29T14:15:16;11.80;93.70
43999;DHT22;51319;52.162;5.302;2023-12-29T14:17:43;11.80;93.70
43999;DHT22;51319;52.162;5.302;2023-12-29T14:20:11;11.80;93.80
43999;DHT22;51319;52.162;5.302;2023-12-29T14:22:40;11.70;93.80
43999;DHT22;51319;52.162;5.302;2023-12-29T14:25:12;11.70;93.80
43999;DHT22;51319;52.162;5.302;2023-12-29T14:27:39;11.60;93.90
43999;DHT22;51319;52.162;5.302;2023-12-29T14:30:18;11.60;93.80
43999;DHT22;51319;52.162;5.302;2023-12-29T14:32:45;11.60;93.60
43999;DHT22;51319;52.162;5.302;2023-12-29T14:35:12;11.50;93.60
43999;DHT22;51319;52.162;5.302;2023-12-29T14:37:40;11.50;93.60
43999;DHT22;51319;52.162;5.302;2023-12-29T14:40:11;11.50;93.60
43999;DHT22;51319;52.162;5.302;2023-12-29T14:42:41;11.50;93.60
43999;DHT22;51319;52.162;5.302;2023-12-29T14:45:09;11.40;93.70
43999;DHT22;51319;52.162;5.302;2023-12-29T14:47:36;11.40;93.70
43999;DHT22;51319;52.162;5.302;2023-12-29T14:50:03;11.40;93.70
43999;DHT22;51319;52.162;5.302;2023-12-29T14:52:30;11.40;93.80
43999;DHT22;51319;52.162;5.302;2023-12-29T14:54:58;11.40;94.00
43999;DHT22;51319;52.162;5.302;2023-12-29T14:57:25;11.30;94.20
43999;DHT22;51319;52.162;5.302;2023-12-29T14:59:52;11.30;94.40
43999;DHT22;51319;52.162;5.302;2023-12-29T15:02:19;11.20;94.90
43999;DHT22;51319;52.162;5.302;2023-12-29T15:04:46;11.10;95.40
43999;DHT22;51319;52.162;5.302;2023-12-29T15:07:16;11.00;95.90
43999;DHT22;51319;52.162;5.302;2023-12-29T15:09:44;10.90;96.50
43999;DHT22;51319;52.162;5.302;2023-12-29T15:12:11;10.70;97.00
43999;DHT22;51319;52.162;5.302;2023-12-29T15:14:38;10.60;97.50
43999;DHT22;51319;52.162;5.302;2023-12-29T15:17:06;10.40;97.90
43999;DHT22;51319;52.162;5.302;2023-12-29T15:19:33;10.30;98.40
43999;DHT22;51319;52.162;5.302;2023-12-29T15:22:00;10.20;98.90
43999;DHT22;51319;52.162;5.302;2023-12-29T15:24:27;10.20;99.50
43999;DHT22;51319;52.162;5.302;2023-12-29T15:26:54;10.10;99.90
43999;DHT22;51319;52.162;5.302;2023-12-29T15:29:21;10.10;99.90
43999;DHT22;51319;52.162;5.302;2023-12-29T15:31:51;10.00;99.90
43999;DHT22;51319;52.162;5.302;2023-12-29T15:34:19;10.00;99.90
43999;DHT22;51319;52.162;5.302;2023-12-29T15:36:54;10.00;99.90
43999;DHT22;51319;52.162;5.302;2023-12-29T15:39:22;10.00;99.90
43999;DHT22;51319;52.162;5.302;2023-12-29T15:41:49;10.00;99.90
43999;DHT22;51319;52.162;5.302;2023-12-29T15:44:16;9.90;99.90
43999;DHT22;51319;52.162;5.302;2023-12-29T15:46:43;9.90;99.90
43999;DHT22;51319;52.162;5.302;2023-12-29T15:49:10;9.90;99.90
43999;DHT22;51319;52.162;5.302;2023-12-29T15:51:37;9.90;99.90
43999;DHT22;51319;52.162;5.302;2023-12-29T15:54:04;9.80;99.90
43999;DHT22;51319;52.162;5.302;2023-12-29T15:56:34;9.80;99.90
43999;DHT22;51319;52.162;5.302;2023-12-29T15:59:00;9.80;99.90
43999;DHT22;51319;52.162;5.302;2023-12-29T16:01:28;9.70;99.90
43999;DHT22;51319;52.162;5.302;2023-12-29T16:03:55;9.70;99.90
43999;DHT22;51319;52.162;5.302;2023-12-29T16:06:23;9.70;99.90
43999;DHT22;51319;52.162;5.302;2023-12-29T16:08:51;9.70;99.90